• Join FlightAware (Why Join?)
  • Login
  • US Flag 
04:28AM EST


 

Airport Tracker/Info


-or-


 

Live Flight TrackerFlight Track Log ✈ SWA3206 ✈ 08-May-2013 ✈ KSAN - KPHX

Flight Track Log - Related Links

Times and Time Zones

All times are in EDT time to prevent confusion due to time zone crossing. See the SWA3206 flight status page for this flight to view local times or setup timezone preferences in your user account.

Time Position Orientation Groundspeed Altitude Reporting Facility
EDT Latitude Longitude Course Direction KTS MPH feet Rate Location/Type
06:57PM 32.7500 -117.2667 292° West 200 230 4,300  Level Southern California TRACON
06:58PM 32.7558 -117.2853 290° West 192 221 4,900 3,720 Climbing Los Angeles Center
06:59PM 32.7167 -117.3297 224° Southwest 228 262 9,100 2,940 Climbing Los Angeles Center
07:00PM 32.6792 -117.2553 121° Southeast 287 330 11,000 3,000 Climbing Los Angeles Center
07:01PM 32.6469 -117.1219 106° East 346 398 15,300 3,720 Climbing Los Angeles Center
07:02PM 32.6164 -117.0033 107° East 368 423 18,800 3,060 Climbing Los Angeles Center
07:03PM 32.6200 -116.8778 88° East 382 440 21,700 2,820 Climbing Los Angeles Center
07:04PM 32.6331 -116.7456 83° East 398 458 24,700 2,340 Climbing Los Angeles Center
07:05PM 32.6475 -116.6069 83° East 422 486 26,600 1,080 Climbing Los Angeles Center
07:06PM 32.6631 -116.4367 84° East 438 504 27,000 180 Climbing Los Angeles Center
07:07PM 32.6742 -116.3244 83° East 437 503 27,000  Level Los Angeles Center
07:08PM 32.6897 -116.1553 84° East 437 503 27,000  Level Los Angeles Center
07:09PM 32.7028 -116.0136 84° East 437 503 27,000  Level Los Angeles Center
07:10PM 32.7167 -115.8719 83° East 436 502 27,000  Level Los Angeles Center
07:11PM 32.7322 -115.7019 84° East 434 499 27,000  Level Los Angeles Center
07:12PM 32.7450 -115.5589 84° East 437 503 27,000  Level Los Angeles Center
07:14PM 32.7533 -115.3847 87° East 442 509 27,000  Level Los Angeles Center
07:15PM 32.7586 -115.2078 88° East 450 518 27,000  Level Los Angeles Center
07:16PM 32.7625 -115.0608 88° East 445 512 27,000  Level Los Angeles Center
07:17PM 32.7661 -114.8817 89° East 451 519 27,000  Level Los Angeles Center
07:18PM 32.7689 -114.7322 89° East 453 521 27,000  Level Los Angeles Center
07:19PM 32.7708 -114.6108 89° East 459 528 27,000  Level Los Angeles Center
07:20PM 32.7728 -114.4292 89° East 457 526 27,000  Level Los Angeles Center
07:21PM 32.7756 -114.2775 89° East 457 526 27,000 -720 Level Los Angeles Center
07:22PM 32.7756 -114.1111 90° East 457 526 25,600 -1,020 Descending Albuquerque Center
07:23PM 32.7769 -113.9653 89° East 446 513 25,000 -300 Descending Albuquerque Center
07:24PM 32.7981 -113.8208 80° East 441 507 25,000  Level Albuquerque Center
07:25PM 32.8264 -113.6811 76° East 441 507 25,000  Level Albuquerque Center
07:26PM 32.9058 -113.5678 50° Northeast 444 511 25,000 -600 Level Albuquerque Center
07:27PM 32.9872 -113.4578 49° Northeast 442 509 23,800 -1,560 Descending Albuquerque Center
07:28PM 33.0839 -113.3272 49° Northeast 438 504 21,900 -1,860 Descending Albuquerque Center
07:29PM 33.1578 -113.2256 49° Northeast 414 476 20,000 -2,040 Descending Albuquerque Center
07:30PM 33.2292 -113.1278 49° Northeast 396 456 17,800 -1,560 Descending Albuquerque Center
07:31PM 33.2750 -113.0183 63° Northeast 390 449 16,900 -540 Descending Albuquerque Center
07:32PM 33.2786 -112.8983 88° East 365 420 16,700 -480 Descending Albuquerque Center
07:33PM 33.2808 -112.7828 89° East 354 407 16,000 -600 Descending Albuquerque Center
07:34PM 33.2825 -112.6714 89° East 342 394 15,500 -1,080 Descending Albuquerque Center
07:35PM 33.2869 -112.5461 88° East 331 381 13,800 -1,620 Descending Albuquerque Center
07:36PM 33.2894 -112.4419 88° East 321 369 12,200 -1,380 Descending Albuquerque Center
07:37PM 33.2917 -112.3392 88° East 315 362 11,000 -1,080 Descending Albuquerque Center
07:38PM 33.3000 -112.2389 84° East 310 357 10,100 -1,020 Descending Albuquerque Center
07:39PM 33.3058 -112.1464 86° East 292 336 9,000 -840 Descending Albuquerque Center
07:40PM 33.3189 -112.0622 79° East 273 314 8,500 -960 Descending Albuquerque Center
07:41PM 33.3417 -111.9678 74° East 253 291 7,100 -1,140 Descending Albuquerque Center
07:42PM 33.3469 -111.8897 85° East 246 283 6,200 -1,080 Descending Albuquerque Center
07:43PM 33.3903 -111.8528 35° Northeast 238 274 5,000 -1,260 Descending Albuquerque Center
07:44PM 33.4303 -111.8781 332° Northwest 209 241 3,700 -1,320 Descending Albuquerque Center
07:45PM 33.4294 -111.9336 269° West 184 212 2,300 -1,080 Descending Albuquerque Center
07:46PM 33.4308 -111.9875 272° West 167 192 1,600 -720 Descending Albuquerque Center